sensor_id;sensor_type;location;lat;lon;timestamp;pressure;altitude;pressure_sealevel;temperature;humidity
40992;BME280;29633;49.168;9.848;2023-02-18T00:01:44;97619.91;;;14.77;67.23
40992;BME280;29633;49.168;9.848;2023-02-18T00:04:10;97613.19;;;14.75;67.14
40992;BME280;29633;49.168;9.848;2023-02-18T00:06:35;97619.22;;;14.75;67.14
40992;BME280;29633;49.168;9.848;2023-02-18T00:09:04;97609.47;;;14.77;66.96
40992;BME280;29633;49.168;9.848;2023-02-18T00:11:32;97613.50;;;14.82;67.09
40992;BME280;29633;49.168;9.848;2023-02-18T00:14:00;97615.16;;;14.83;66.95
40992;BME280;29633;49.168;9.848;2023-02-18T00:16:26;97611.72;;;14.82;67.04
40992;BME280;29633;49.168;9.848;2023-02-18T00:19:05;97617.06;;;14.81;67.05
40992;BME280;29633;49.168;9.848;2023-02-18T00:21:33;97624.06;;;14.80;67.04
40992;BME280;29633;49.168;9.848;2023-02-18T00:23:59;97617.06;;;14.81;67.07
40992;BME280;29633;49.168;9.848;2023-02-18T00:26:25;97618.00;;;14.79;67.10
40992;BME280;29633;49.168;9.848;2023-02-18T00:28:51;97616.22;;;14.80;67.05
40992;BME280;29633;49.168;9.848;2023-02-18T00:31:23;97607.44;;;14.81;67.04
40992;BME280;29633;49.168;9.848;2023-02-18T00:33:48;97619.53;;;14.82;67.04
40992;BME280;29633;49.168;9.848;2023-02-18T00:36:16;97607.19;;;14.84;67.05
40992;BME280;29633;49.168;9.848;2023-02-18T00:38:49;97622.72;;;14.86;66.98
40992;BME280;29633;49.168;9.848;2023-02-18T00:41:16;97615.94;;;14.83;67.10
40992;BME280;29633;49.168;9.848;2023-02-18T00:43:42;97611.44;;;14.85;67.04
40992;BME280;29633;49.168;9.848;2023-02-18T00:46:08;97614.06;;;14.85;67.11
40992;BME280;29633;49.168;9.848;2023-02-18T00:48:34;97602.53;;;14.88;67.14
40992;BME280;29633;49.168;9.848;2023-02-18T00:51:01;97602.53;;;14.88;67.14
40992;BME280;29633;49.168;9.848;2023-02-18T00:53:28;97609.66;;;14.86;67.21
40992;BME280;29633;49.168;9.848;2023-02-18T00:55:53;97607.19;;;14.84;67.19
40992;BME280;29633;49.168;9.848;2023-02-18T00:58:19;97603.63;;;14.85;67.34
40992;BME280;29633;49.168;9.848;2023-02-18T01:00:45;97601.28;;;14.82;67.20
40992;BME280;29633;49.168;9.848;2023-02-18T01:03:11;97608.00;;;14.85;67.15
40992;BME280;29633;49.168;9.848;2023-02-18T01:05:37;97602.66;;;14.86;66.84
40992;BME280;29633;49.168;9.848;2023-02-18T01:08:05;97597.81;;;14.82;67.22
40992;BME280;29633;49.168;9.848;2023-02-18T01:10:31;97604.25;;;14.77;67.35
40992;BME280;29633;49.168;9.848;2023-02-18T01:12:57;97609.03;;;14.72;67.45
40992;BME280;29633;49.168;9.848;2023-02-18T01:15:23;97610.00;;;14.71;67.51
40992;BME280;29633;49.168;9.848;2023-02-18T01:17:48;97597.78;;;14.72;67.52
40992;BME280;29633;49.168;9.848;2023-02-18T01:20:16;97590.91;;;14.71;67.65
40992;BME280;29633;49.168;9.848;2023-02-18T01:22:44;97607.66;;;14.68;67.67
40992;BME280;29633;49.168;9.848;2023-02-18T01:25:10;97603.50;;;14.66;67.58
40992;BME280;29633;49.168;9.848;2023-02-18T01:27:36;97596.66;;;14.65;67.80
40992;BME280;29633;49.168;9.848;2023-02-18T01:30:07;97598.44;;;14.64;67.62
40992;BME280;29633;49.168;9.848;2023-02-18T01:32:33;97602.81;;;14.64;67.75
40992;BME280;29633;49.168;9.848;2023-02-18T01:35:03;97608.16;;;14.62;67.68
40992;BME280;29633;49.168;9.848;2023-02-18T01:37:29;97604.31;;;14.66;67.68
40992;BME280;29633;49.168;9.848;2023-02-18T01:39:55;97613.09;;;14.65;67.83
40992;BME280;29633;49.168;9.848;2023-02-18T01:42:24;97597.59;;;14.64;67.73
40992;BME280;29633;49.168;9.848;2023-02-18T01:44:50;97594.16;;;14.63;67.74
40992;BME280;29633;49.168;9.848;2023-02-18T01:47:16;97590.81;;;14.61;67.85
40992;BME280;29633;49.168;9.848;2023-02-18T01:49:42;97593.59;;;14.60;67.78
40992;BME280;29633;49.168;9.848;2023-02-18T01:52:25;97588.38;;;14.60;67.85
40992;BME280;29633;49.168;9.848;2023-02-18T01:54:55;97586.00;;;14.57;67.81
40992;BME280;29633;49.168;9.848;2023-02-18T01:57:29;97588.47;;;14.58;67.95
40992;BME280;29633;49.168;9.848;2023-02-18T01:59:58;97590.13;;;14.59;67.87
40992;BME280;29633;49.168;9.848;2023-02-18T02:02:27;97582.56;;;14.56;67.92
40992;BME280;29633;49.168;9.848;2023-02-18T02:04:54;97572.41;;;14.53;68.00
40992;BME280;29633;49.168;9.848;2023-02-18T02:07:21;97575.84;;;14.54;67.97
40992;BME280;29633;49.168;9.848;2023-02-18T02:09:49;97576.53;;;14.56;68.01
40992;BME280;29633;49.168;9.848;2023-02-18T02:15:27;97571.00;;;14.49;68.27
40992;BME280;29633;49.168;9.848;2023-02-18T02:34:31;97549.59;;;14.55;68.18
40992;BME280;29633;49.168;9.848;2023-02-18T02:40:18;97537.28;;;14.57;68.03
40992;BME280;29633;49.168;9.848;2023-02-18T02:42:34;97538.78;;;14.60;67.97
40992;BME280;29633;49.168;9.848;2023-02-18T02:45:17;97529.28;;;14.59;68.05
40992;BME280;29633;49.168;9.848;2023-02-18T02:48:45;97532.63;;;14.61;68.10
40992;BME280;29633;49.168;9.848;2023-02-18T02:53:25;97539.25;;;14.65;67.95
40992;BME280;29633;49.168;9.848;2023-02-18T02:55:51;97540.03;;;14.65;67.85
40992;BME280;29633;49.168;9.848;2023-02-18T02:58:19;97537.88;;;14.70;67.81
40992;BME280;29633;49.168;9.848;2023-02-18T03:01:04;97531.56;;;14.73;67.82
40992;BME280;29633;49.168;9.848;2023-02-18T03:06:22;97526.91;;;14.76;67.78
40992;BME280;29633;49.168;9.848;2023-02-18T03:09:09;97525.50;;;14.72;67.91
40992;BME280;29633;49.168;9.848;2023-02-18T03:11:51;97516.06;;;14.71;67.88
40992;BME280;29633;49.168;9.848;2023-02-18T03:14:26;97524.72;;;14.72;67.60
40992;BME280;29633;49.168;9.848;2023-02-18T03:17:03;97511.78;;;14.70;67.71
40992;BME280;29633;49.168;9.848;2023-02-18T03:19:34;97523.88;;;14.71;67.73
40992;BME280;29633;49.168;9.848;2023-02-18T03:22:06;97518.66;;;14.71;67.61
40992;BME280;29633;49.168;9.848;2023-02-18T03:24:39;97521.28;;;14.71;67.97
40992;BME280;29633;49.168;9.848;2023-02-18T03:27:15;97521.53;;;14.68;67.95
40992;BME280;29633;49.168;9.848;2023-02-18T03:29:42;97525.94;;;14.68;67.88
40992;BME280;29633;49.168;9.848;2023-02-18T03:32:10;97524.94;;;14.69;67.79
40992;BME280;29633;49.168;9.848;2023-02-18T03:34:40;97526.03;;;14.66;67.85
40992;BME280;29633;49.168;9.848;2023-02-18T03:37:08;97542.91;;;14.62;68.07
40992;BME280;29633;49.168;9.848;2023-02-18T03:39:35;97545.66;;;14.61;67.93
40992;BME280;29633;49.168;9.848;2023-02-18T03:42:01;97541.50;;;14.58;68.10
40992;BME280;29633;49.168;9.848;2023-02-18T03:44:27;97555.66;;;14.56;68.17
40992;BME280;29633;49.168;9.848;2023-02-18T03:46:55;97536.69;;;14.54;68.25
40992;BME280;29633;49.168;9.848;2023-02-18T03:49:20;97525.44;;;14.53;68.26
40992;BME280;29633;49.168;9.848;2023-02-18T03:51:46;97529.94;;;14.51;68.19
40992;BME280;29633;49.168;9.848;2023-02-18T03:54:12;97537.06;;;14.49;68.11
40992;BME280;29633;49.168;9.848;2023-02-18T03:56:39;97536.38;;;14.47;68.40
40992;BME280;29633;49.168;9.848;2023-02-18T03:59:04;97543.63;;;14.44;68.07
40992;BME280;29633;49.168;9.848;2023-02-18T04:01:30;97533.91;;;14.46;68.53
40992;BME280;29633;49.168;9.848;2023-02-18T04:03:56;97523.09;;;14.50;68.14
40992;BME280;29633;49.168;9.848;2023-02-18T04:06:22;97522.81;;;14.53;68.10
40992;BME280;29633;49.168;9.848;2023-02-18T04:08:48;97531.72;;;14.51;68.21
40992;BME280;29633;49.168;9.848;2023-02-18T04:11:14;97517.97;;;14.49;68.20
40992;BME280;29633;49.168;9.848;2023-02-18T04:13:39;97512.19;;;14.45;68.24
40992;BME280;29633;49.168;9.848;2023-02-18T04:16:05;97527.53;;;14.39;68.40
40992;BME280;29633;49.168;9.848;2023-02-18T04:18:31;97517.09;;;14.39;68.40
40992;BME280;29633;49.168;9.848;2023-02-18T04:20:56;97523.16;;;14.39;68.38
40992;BME280;29633;49.168;9.848;2023-02-18T04:23:22;97512.97;;;14.36;68.53
40992;BME280;29633;49.168;9.848;2023-02-18T04:25:48;97516.28;;;14.38;68.38
40992;BME280;29633;49.168;9.848;2023-02-18T04:28:14;97526.81;;;14.37;68.40
40992;BME280;29633;49.168;9.848;2023-02-18T04:30:45;97515.72;;;14.35;68.57
40992;BME280;29633;49.168;9.848;2023-02-18T04:33:11;97526.97;;;14.35;68.55
40992;BME280;29633;49.168;9.848;2023-02-18T04:35:37;97518.31;;;14.35;68.45
40992;BME280;29633;49.168;9.848;2023-02-18T04:38:04;97511.31;;;14.35;68.57
40992;BME280;29633;49.168;9.848;2023-02-18T04:40:30;97520.56;;;14.39;68.35
40992;BME280;29633;49.168;9.848;2023-02-18T04:42:57;97524.78;;;14.40;68.36
40992;BME280;29633;49.168;9.848;2023-02-18T04:45:24;97515.56;;;14.36;68.51
40992;BME280;29633;49.168;9.848;2023-02-18T04:47:50;97523.38;;;14.36;68.53
40992;BME280;29633;49.168;9.848;2023-02-18T04:50:15;97526.22;;;14.33;68.64
40992;BME280;29633;49.168;9.848;2023-02-18T04:52:41;97535.97;;;14.31;68.71
40992;BME280;29633;49.168;9.848;2023-02-18T04:55:06;97525.91;;;14.26;68.77
40992;BME280;29633;49.168;9.848;2023-02-18T04:57:32;97533.88;;;14.25;68.76
40992;BME280;29633;49.168;9.848;2023-02-18T04:59:58;97533.88;;;14.25;68.95
40992;BME280;29633;49.168;9.848;2023-02-18T05:02:24;97533.75;;;14.26;68.92
40992;BME280;29633;49.168;9.848;2023-02-18T05:04:49;97536.50;;;14.25;68.94
40992;BME280;29633;49.168;9.848;2023-02-18T05:07:15;97536.72;;;14.22;68.82
40992;BME280;29633;49.168;9.848;2023-02-18T05:09:41;97539.47;;;14.20;68.97
40992;BME280;29633;49.168;9.848;2023-02-18T05:12:06;97542.91;;;14.21;69.00
40992;BME280;29633;49.168;9.848;2023-02-18T05:14:32;97537.56;;;14.22;69.06
40992;BME280;29633;49.168;9.848;2023-02-18T05:16:58;97539.31;;;14.22;69.01
40992;BME280;29633;49.168;9.848;2023-02-18T05:19:23;97538.53;;;14.21;69.09
40992;BME280;29633;49.168;9.848;2023-02-18T05:21:49;97532.22;;;14.24;68.84
40992;BME280;29633;49.168;9.848;2023-02-18T05:24:15;97528.41;;;14.28;68.89
40992;BME280;29633;49.168;9.848;2023-02-18T05:26:40;97528.25;;;14.29;68.82
40992;BME280;29633;49.168;9.848;2023-02-18T05:29:06;97527.56;;;14.27;68.88
40992;BME280;29633;49.168;9.848;2023-02-18T05:31:32;97520.69;;;14.26;68.56
40992;BME280;29633;49.168;9.848;2023-02-18T05:33:57;97522.00;;;14.32;68.81
40992;BME280;29633;49.168;9.848;2023-02-18T05:36:23;97524.59;;;14.32;68.87
40992;BME280;29633;49.168;9.848;2023-02-18T05:38:49;97522.00;;;14.32;68.76
40992;BME280;29633;49.168;9.848;2023-02-18T05:41:15;97524.13;;;14.27;68.89
40992;BME280;29633;49.168;9.848;2023-02-18T05:43:40;97511.47;;;14.22;68.98
40992;BME280;29633;49.168;9.848;2023-02-18T05:46:27;97517.78;;;14.20;69.17
40992;BME280;29633;49.168;9.848;2023-02-18T05:48:52;97517.91;;;14.18;69.04
40992;BME280;29633;49.168;9.848;2023-02-18T05:51:18;97516.13;;;14.19;69.14
40992;BME280;29633;49.168;9.848;2023-02-18T05:53:44;97516.84;;;14.21;69.02
40992;BME280;29633;49.168;9.848;2023-02-18T05:56:10;97527.13;;;14.22;68.92
40992;BME280;29633;49.168;9.848;2023-02-18T05:58:35;97523.44;;;14.25;68.86
40992;BME280;29633;49.168;9.848;2023-02-18T06:01:01;97531.69;;;14.30;68.73
40992;BME280;29633;49.168;9.848;2023-02-18T06:03:27;97526.22;;;14.33;68.81
40992;BME280;29633;49.168;9.848;2023-02-18T06:05:53;97525.06;;;14.37;68.54
40992;BME280;29633;49.168;9.848;2023-02-18T06:08:18;97530.72;;;14.42;68.63
40992;BME280;29633;49.168;9.848;2023-02-18T06:10:47;97527.28;;;14.42;68.58
40992;BME280;29633;49.168;9.848;2023-02-18T06:13:13;97531.41;;;14.44;68.53
40992;BME280;29633;49.168;9.848;2023-02-18T06:15:38;97534.72;;;14.46;68.58
40992;BME280;29633;49.168;9.848;2023-02-18T06:18:05;97539.53;;;14.51;68.34
40992;BME280;29633;49.168;9.848;2023-02-18T06:20:31;97530.38;;;14.56;68.34
40992;BME280;29633;49.168;9.848;2023-02-18T06:22:56;97520.53;;;14.60;68.35
40992;BME280;29633;49.168;9.848;2023-02-18T06:25:22;97534.25;;;14.62;68.04
40992;BME280;29633;49.168;9.848;2023-02-18T06:27:47;97527.25;;;14.62;68.21
40992;BME280;29633;49.168;9.848;2023-02-18T06:30:13;97531.53;;;14.63;68.43
40992;BME280;29633;49.168;9.848;2023-02-18T06:32:39;97534.13;;;14.63;68.05
40992;BME280;29633;49.168;9.848;2023-02-18T06:35:05;97529.59;;;14.65;67.89
40992;BME280;29633;49.168;9.848;2023-02-18T06:37:31;97520.81;;;14.66;68.22
40992;BME280;29633;49.168;9.848;2023-02-18T06:39:56;97517.25;;;14.67;68.10
40992;BME280;29633;49.168;9.848;2023-02-18T06:42:22;97509.44;;;14.67;68.02
40992;BME280;29633;49.168;9.848;2023-02-18T06:44:48;97510.38;;;14.66;68.13
40992;BME280;29633;49.168;9.848;2023-02-18T06:47:14;97509.69;;;14.64;68.11
40992;BME280;29633;49.168;9.848;2023-02-18T06:49:39;97512.44;;;14.63;68.18
40992;BME280;29633;49.168;9.848;2023-02-18T06:52:05;97494.16;;;14.63;68.18
40992;BME280;29633;49.168;9.848;2023-02-18T06:54:33;97512.31;;;14.64;68.15
40992;BME280;29633;49.168;9.848;2023-02-18T06:56:59;97506.81;;;14.67;68.24
40992;BME280;29633;49.168;9.848;2023-02-18T06:59:25;97512.47;;;14.72;68.01
40992;BME280;29633;49.168;9.848;2023-02-18T07:01:50;97497.25;;;14.77;67.93
40992;BME280;29633;49.168;9.848;2023-02-18T07:04:18;97502.19;;;14.81;67.96
40992;BME280;29633;49.168;9.848;2023-02-18T07:06:44;97498.63;;;14.82;67.79
40992;BME280;29633;49.168;9.848;2023-02-18T07:09:09;97500.41;;;14.81;67.83
40992;BME280;29633;49.168;9.848;2023-02-18T07:11:35;97496.03;;;14.82;67.81
40992;BME280;29633;49.168;9.848;2023-02-18T07:14:01;97491.25;;;14.87;67.72
40992;BME280;29633;49.168;9.848;2023-02-18T07:16:26;97481.59;;;14.87;67.79
40992;BME280;29633;49.168;9.848;2023-02-18T07:18:52;97478.88;;;14.89;67.67
40992;BME280;29633;49.168;9.848;2023-02-18T07:21:18;97480.28;;;14.93;67.63
40992;BME280;29633;49.168;9.848;2023-02-18T07:23:43;97479.44;;;14.92;67.58
40992;BME280;29633;49.168;9.848;2023-02-18T07:26:12;97470.94;;;14.90;67.61
40992;BME280;29633;49.168;9.848;2023-02-18T07:28:38;97477.22;;;14.88;67.74
40992;BME280;29633;49.168;9.848;2023-02-18T07:31:05;97475.81;;;14.84;67.68
40992;BME280;29633;49.168;9.848;2023-02-18T07:33:31;97479.91;;;14.76;67.74
40992;BME280;29633;49.168;9.848;2023-02-18T07:35:58;97481.13;;;14.72;67.89
40992;BME280;29633;49.168;9.848;2023-02-18T07:38:24;97470.69;;;14.72;67.75
40992;BME280;29633;49.168;9.848;2023-02-18T07:40:51;97474.97;;;14.73;67.74
40992;BME280;29633;49.168;9.848;2023-02-18T07:43:16;97476.47;;;14.76;67.75
40992;BME280;29633;49.168;9.848;2023-02-18T07:45:43;97471.16;;;14.77;67.65
40992;BME280;29633;49.168;9.848;2023-02-18T07:48:09;97479.91;;;14.76;67.75
40992;BME280;29633;49.168;9.848;2023-02-18T07:50:34;97471.41;;;14.74;67.50
40992;BME280;29633;49.168;9.848;2023-02-18T07:53:03;97476.91;;;14.71;67.69
40992;BME280;29633;49.168;9.848;2023-02-18T07:55:29;97473.84;;;14.66;67.65
40992;BME280;29633;49.168;9.848;2023-02-18T07:58:16;97473.28;;;14.63;67.75
40992;BME280;29633;49.168;9.848;2023-02-18T08:00:42;97462.41;;;14.58;67.73
40992;BME280;29633;49.168;9.848;2023-02-18T08:03:08;97455.66;;;14.55;67.94
40992;BME280;29633;49.168;9.848;2023-02-18T08:05:33;97454.16;;;14.53;67.89
40992;BME280;29633;49.168;9.848;2023-02-18T08:07:59;97457.59;;;14.53;67.84
40992;BME280;29633;49.168;9.848;2023-02-18T08:10:24;97445.50;;;14.52;67.97
40992;BME280;29633;49.168;9.848;2023-02-18T08:12:50;97446.44;;;14.51;68.01
40992;BME280;29633;49.168;9.848;2023-02-18T08:15:16;97442.91;;;14.52;67.83
40992;BME280;29633;49.168;9.848;2023-02-18T08:17:41;97441.13;;;14.53;68.00
40992;BME280;29633;49.168;9.848;2023-02-18T08:20:07;97432.34;;;14.54;67.86
40992;BME280;29633;49.168;9.848;2023-02-18T08:22:33;97438.25;;;14.56;67.88
40992;BME280;29633;49.168;9.848;2023-02-18T08:24:59;97445.94;;;14.57;67.89
40992;BME280;29633;49.168;9.848;2023-02-18T08:27:25;97431.66;;;14.61;67.78
40992;BME280;29633;49.168;9.848;2023-02-18T08:29:50;97428.66;;;14.66;67.87
40992;BME280;29633;49.168;9.848;2023-02-18T08:32:16;97429.47;;;14.66;67.68
40992;BME280;29633;49.168;9.848;2023-02-18T08:34:42;97422.75;;;14.64;67.74
40992;BME280;29633;49.168;9.848;2023-02-18T08:37:08;97424.53;;;14.63;67.78
40992;BME280;29633;49.168;9.848;2023-02-18T08:39:37;97429.03;;;14.61;67.84
40992;BME280;29633;49.168;9.848;2023-02-18T08:42:03;97436.19;;;14.59;67.98
40992;BME280;29633;49.168;9.848;2023-02-18T08:44:29;97439.91;;;14.57;67.99
40992;BME280;29633;49.168;9.848;2023-02-18T08:46:54;97432.34;;;14.54;67.91
40992;BME280;29633;49.168;9.848;2023-02-18T08:49:20;97433.41;;;14.51;67.98
40992;BME280;29633;49.168;9.848;2023-02-18T08:51:49;97438.63;;;14.51;67.96
40992;BME280;29633;49.168;9.848;2023-02-18T08:54:15;97415.28;;;14.50;67.87
40992;BME280;29633;49.168;9.848;2023-02-18T08:56:41;97420.25;;;14.53;67.95
40992;BME280;29633;49.168;9.848;2023-02-18T08:59:07;97430.41;;;14.56;68.01
40992;BME280;29633;49.168;9.848;2023-02-18T09:01:32;97427.69;;;14.57;67.94
40992;BME280;29633;49.168;9.848;2023-02-18T09:03:58;97424.81;;;14.60;67.85
40992;BME280;29633;49.168;9.848;2023-02-18T09:06:24;97416.31;;;14.68;67.75
40992;BME280;29633;49.168;9.848;2023-02-18T09:08:49;97408.63;;;14.76;67.57
40992;BME280;29633;49.168;9.848;2023-02-18T09:11:15;97409.63;;;14.85;67.68
40992;BME280;29633;49.168;9.848;2023-02-18T09:13:41;97408.28;;;14.90;67.41
40992;BME280;29633;49.168;9.848;2023-02-18T09:16:13;97393.56;;;14.99;67.46
40992;BME280;29633;49.168;9.848;2023-02-18T09:18:39;97403.75;;;15.02;67.45
40992;BME280;29633;49.168;9.848;2023-02-18T09:21:06;97397.28;;;15.06;67.42
40992;BME280;29633;49.168;9.848;2023-02-18T09:23:34;97402.22;;;15.09;67.35
40992;BME280;29633;49.168;9.848;2023-02-18T09:26:03;97389.59;;;15.14;67.49
40992;BME280;29633;49.168;9.848;2023-02-18T09:28:29;97399.50;;;15.20;67.39
40992;BME280;29633;49.168;9.848;2023-02-18T09:30:55;97387.16;;;15.22;67.42
40992;BME280;29633;49.168;9.848;2023-02-18T09:33:21;97376.41;;;15.25;67.36
40992;BME280;29633;49.168;9.848;2023-02-18T09:35:47;97376.13;;;15.28;67.40
40992;BME280;29633;49.168;9.848;2023-02-18T09:38:15;97360.75;;;15.44;67.25
40992;BME280;29633;49.168;9.848;2023-02-18T09:40:43;97380.44;;;15.58;67.04
40992;BME280;29633;49.168;9.848;2023-02-18T09:43:32;97369.56;;;15.62;67.14
40992;BME280;29633;49.168;9.848;2023-02-18T09:45:59;97384.69;;;15.68;66.99
40992;BME280;29633;49.168;9.848;2023-02-18T09:48:34;97385.06;;;15.73;67.08
40992;BME280;29633;49.168;9.848;2023-02-18T09:51:00;97382.44;;;15.73;67.04
40992;BME280;29633;49.168;9.848;2023-02-18T09:53:26;97395.38;;;15.75;67.08
40992;BME280;29633;49.168;9.848;2023-02-18T09:55:53;97405.56;;;15.78;67.03
40992;BME280;29633;49.168;9.848;2023-02-18T09:58:24;97406.28;;;15.80;66.86
40992;BME280;29633;49.168;9.848;2023-02-18T10:01:14;97406.56;;;15.77;67.08
40992;BME280;29633;49.168;9.848;2023-02-18T10:03:41;97403.09;;;15.77;67.04
40992;BME280;29633;49.168;9.848;2023-02-18T10:06:17;97397.31;;;15.83;66.94
40992;BME280;29633;49.168;9.848;2023-02-18T10:08:48;97409.44;;;15.84;67.02
40992;BME280;29633;49.168;9.848;2023-02-18T10:11:37;97412.16;;;15.82;66.95
40992;BME280;29633;49.168;9.848;2023-02-18T10:14:08;97400.06;;;15.81;66.91
40992;BME280;29633;49.168;9.848;2023-02-18T10:16:35;97389.59;;;15.81;66.98
40992;BME280;29633;49.168;9.848;2023-02-18T10:19:27;97403.09;;;15.86;66.81
40992;BME280;29633;49.168;9.848;2023-02-18T10:21:50;97390.44;;;15.91;66.86
40992;BME280;29633;49.168;9.848;2023-02-18T10:26:49;97392.72;;;16.04;66.56
40992;BME280;29633;49.168;9.848;2023-02-18T10:29:17;97395.63;;;16.01;66.67
40992;BME280;29633;49.168;9.848;2023-02-18T10:31:45;97394.78;;;16.00;66.68
40992;BME280;29633;49.168;9.848;2023-02-18T10:50:59;97405.94;;;15.93;66.72
40992;BME280;29633;49.168;9.848;2023-02-18T10:53:36;97399.06;;;15.92;66.65
40992;BME280;29633;49.168;9.848;2023-02-18T10:56:05;97374.88;;;15.90;66.58
40992;BME280;29633;49.168;9.848;2023-02-18T10:58:46;97380.09;;;15.90;66.46
40992;BME280;29633;49.168;9.848;2023-02-18T11:01:16;97384.50;;;15.89;66.57
40992;BME280;29633;49.168;9.848;2023-02-18T11:08:43;97384.53;;;15.80;66.52
40992;BME280;29633;49.168;9.848;2023-02-18T11:11:36;97375.84;;;15.79;66.48
40992;BME280;29633;49.168;9.848;2023-02-18T11:14:04;97375.03;;;15.79;66.40
40992;BME280;29633;49.168;9.848;2023-02-18T11:16:42;97375.56;;;15.82;66.37
40992;BME280;29633;49.168;9.848;2023-02-18T11:19:37;97371.03;;;15.84;66.43
40992;BME280;29633;49.168;9.848;2023-02-18T11:22:19;97369.22;;;15.85;66.36
40992;BME280;29633;49.168;9.848;2023-02-18T11:24:45;97357.25;;;15.82;66.46
40992;BME280;29633;49.168;9.848;2023-02-18T11:30:33;97356.88;;;15.77;66.45
40992;BME280;29633;49.168;9.848;2023-02-18T11:35:31;97360.03;;;15.81;66.31
40992;BME280;29633;49.168;9.848;2023-02-18T11:37:59;97357.44;;;15.81;66.23
40992;BME280;29633;49.168;9.848;2023-02-18T11:40:34;97361.28;;;15.77;66.28
40992;BME280;29633;49.168;9.848;2023-02-18T11:43:16;97353.03;;;15.71;66.49
40992;BME280;29633;49.168;9.848;2023-02-18T11:45:43;97347.91;;;15.70;66.37
40992;BME280;29633;49.168;9.848;2023-02-18T11:48:18;97341.47;;;15.64;66.31
40992;BME280;29633;49.168;9.848;2023-02-18T11:50:49;97364.34;;;15.62;66.43
40992;BME280;29633;49.168;9.848;2023-02-18T11:53:29;97350.44;;;15.62;66.56
40992;BME280;29633;49.168;9.848;2023-02-18T11:55:57;97336.38;;;15.63;66.46
40992;BME280;29633;49.168;9.848;2023-02-18T11:58:24;97329.38;;;15.63;66.46
40992;BME280;29633;49.168;9.848;2023-02-18T12:00:53;97347.25;;;15.68;66.23
40992;BME280;29633;49.168;9.848;2023-02-18T12:03:29;97335.97;;;15.67;66.27
40992;BME280;29633;49.168;9.848;2023-02-18T12:06:01;97345.75;;;15.65;66.41
40992;BME280;29633;49.168;9.848;2023-02-18T12:08:30;97326.38;;;15.58;66.37
40992;BME280;29633;49.168;9.848;2023-02-18T12:11:08;97325.69;;;15.56;66.41
40992;BME280;29633;49.168;9.848;2023-02-18T12:13:51;97325.69;;;15.56;66.43
40992;BME280;29633;49.168;9.848;2023-02-18T12:16:28;97342.34;;;15.55;66.53
40992;BME280;29633;49.168;9.848;2023-02-18T12:19:25;97321.69;;;15.52;66.46
40992;BME280;29633;49.168;9.848;2023-02-18T12:34:12;97312.34;;;15.40;66.60
40992;BME280;29633;49.168;9.848;2023-02-18T12:47:47;97307.66;;;15.44;66.39
40992;BME280;29633;49.168;9.848;2023-02-18T12:50:56;97316.03;;;15.47;66.43
40992;BME280;29633;49.168;9.848;2023-02-18T12:53:28;97306.56;;;15.46;66.25
40992;BME280;29633;49.168;9.848;2023-02-18T12:56:26;97304.91;;;15.45;66.28
40992;BME280;29633;49.168;9.848;2023-02-18T13:01:57;97303.53;;;15.41;66.36
40992;BME280;29633;49.168;9.848;2023-02-18T13:04:36;97298.84;;;15.45;66.33
40992;BME280;29633;49.168;9.848;2023-02-18T13:07:20;97308.50;;;15.44;66.36
40992;BME280;29633;49.168;9.848;2023-02-18T13:10:22;97292.53;;;15.47;66.33
40992;BME280;29633;49.168;9.848;2023-02-18T13:13:12;97281.53;;;15.44;66.25
40992;BME280;29633;49.168;9.848;2023-02-18T13:15:47;97289.22;;;15.45;66.17
40992;BME280;29633;49.168;9.848;2023-02-18T13:18:25;97288.94;;;15.48;66.08
40992;BME280;29633;49.168;9.848;2023-02-18T13:20:55;97298.34;;;15.51;66.33
40992;BME280;29633;49.168;9.848;2023-02-18T13:23:24;97288.56;;;15.53;66.25
40992;BME280;29633;49.168;9.848;2023-02-18T13:25:56;97274.66;;;15.52;66.08
40992;BME280;29633;49.168;9.848;2023-02-18T13:28:42;97264.50;;;15.49;66.32
40992;BME280;29633;49.168;9.848;2023-02-18T13:33:59;97269.97;;;15.56;66.22
40992;BME280;29633;49.168;9.848;2023-02-18T13:39:17;97272.44;;;15.57;66.24
40992;BME280;29633;49.168;9.848;2023-02-18T13:41:46;97261.34;;;15.55;66.38
40992;BME280;29633;49.168;9.848;2023-02-18T13:46:48;97271.09;;;15.53;66.19
40992;BME280;29633;49.168;9.848;2023-02-18T13:49:15;97253.50;;;15.55;66.21
40992;BME280;29633;49.168;9.848;2023-02-18T13:51:47;97270.78;;;15.56;66.12
40992;BME280;29633;49.168;9.848;2023-02-18T13:54:24;97241.09;;;15.57;66.15
40992;BME280;29633;49.168;9.848;2023-02-18T13:56:53;97252.38;;;15.58;66.21
40992;BME280;29633;49.168;9.848;2023-02-18T13:59:42;97254.28;;;15.56;66.19
40992;BME280;29633;49.168;9.848;2023-02-18T14:10:30;97243.59;;;15.40;66.36
40992;BME280;29633;49.168;9.848;2023-02-18T14:20:41;97241.69;;;15.32;66.53
40992;BME280;29633;49.168;9.848;2023-02-18T14:26:38;97282.66;;;15.32;66.41
40992;BME280;29633;49.168;9.848;2023-02-18T14:39:33;97242.66;;;15.21;66.66
40992;BME280;29633;49.168;9.848;2023-02-18T14:44:52;97242.78;;;15.20;66.67
40992;BME280;29633;49.168;9.848;2023-02-18T14:47:44;97241.00;;;15.20;66.58
40992;BME280;29633;49.168;9.848;2023-02-18T14:50:18;97238.41;;;15.20;66.48
40992;BME280;29633;49.168;9.848;2023-02-18T14:52:46;97243.06;;;15.26;66.48
40992;BME280;29633;49.168;9.848;2023-02-18T14:55:25;97241.13;;;15.28;66.50
40992;BME280;29633;49.168;9.848;2023-02-18T14:58:05;97239.19;;;15.31;66.37
40992;BME280;29633;49.168;9.848;2023-02-18T15:00:38;97238.41;;;15.30;66.23
40992;BME280;29633;49.168;9.848;2023-02-18T15:03:12;97243.47;;;15.32;66.42
40992;BME280;29633;49.168;9.848;2023-02-18T15:05:38;97240.72;;;15.33;66.28
40992;BME280;29633;49.168;9.848;2023-02-18T15:08:05;97246.63;;;15.35;66.30
40992;BME280;29633;49.168;9.848;2023-02-18T15:10:45;97246.63;;;15.35;66.25
40992;BME280;29633;49.168;9.848;2023-02-18T15:13:26;97244.97;;;15.34;66.27
40992;BME280;29633;49.168;9.848;2023-02-18T15:15:57;97233.28;;;15.38;66.19
40992;BME280;29633;49.168;9.848;2023-02-18T15:18:43;97232.03;;;15.42;66.00